Time;durP1;ratioP1;P1;durP2;ratioP2;P2;SDS_P1;SDS_P2;PMS_P1;PMS_P2;Temp;Humidity;BMP_temperature;BMP_pressure;BME280_temperature;BME280_humidity;BME280_pressure;Samples;Min_cycle;Max_cycle;Signal;HPM_P1;HPM_P2
2023/10/11 00:02:53;;;;;;;38.72;10.82;;;;;;;-146.27;82.68;81594.81;5016024;28;20033;-68
2023/10/11 00:05:19;;;;;;;36.47;11.00;;;;;;;-146.27;83.40;81624.94;5017476;28;20473;-67
2023/10/11 00:07:45;;;;;;;26.40;10.57;;;;;;;-146.27;83.07;81592.78;5021711;28;20386;-67
2023/10/11 00:10:11;;;;;;;23.33;10.13;;;;;;;-146.27;82.31;81572.72;5026336;28;20478;-67
2023/10/11 00:12:41;;;;;;;23.63;9.65;;;;;;;-146.27;82.08;81570.69;5024642;28;20118;-67
2023/10/11 00:15:08;;;;;;;28.10;9.93;;;;;;;-146.27;81.98;81534.56;5025924;28;20107;-67
2023/10/11 00:17:36;;;;;;;30.92;9.63;;;;;;;-146.27;82.25;81574.72;5018023;28;20025;-68
2023/10/11 00:20:19;;;;;;;27.52;9.85;;;;;;;-146.27;82.35;81584.75;5016267;28;20560;-67
2023/10/11 00:22:45;;;;;;;;;;;;;;;-146.27;81.84;81508.44;5013173;28;20121;-67
2023/10/11 00:25:12;;;;;;;30.42;10.15;;;;;;;-146.27;82.38;81604.84;5016528;28;20008;-67
2023/10/11 00:27:37;;;;;;;30.45;10.35;;;;;;;-146.27;82.93;81626.94;5023539;28;20047;-67
2023/10/11 00:30:03;;;;;;;37.45;11.02;;;;;;;-146.27;82.27;81562.66;5016885;28;20021;-66
2023/10/11 00:32:29;;;;;;;28.15;9.48;;;;;;;-146.27;82.35;81538.56;5011913;28;20117;-66
2023/10/11 00:34:55;;;;;;;29.02;9.98;;;;;;;-146.27;82.41;81592.78;5011936;28;20029;-66
2023/10/11 00:37:20;;;;;;;31.98;10.38;;;;;;;-146.27;82.08;81552.63;5018815;28;20038;-66
2023/10/11 00:39:45;;;;;;;27.45;9.52;;;;;;;-146.27;81.16;81498.41;5023469;28;20400;-67
2023/10/11 00:42:11;;;;;;;32.65;10.02;;;;;;;-146.27;81.47;81504.44;5027993;28;20481;-66
2023/10/11 00:44:38;;;;;;;37.20;10.40;;;;;;;-146.27;81.54;81572.72;5019493;28;20576;-66
2023/10/11 00:47:07;;;;;;;33.22;10.52;;;;;;;-146.27;81.65;81552.63;5026958;28;20037;-68
2023/10/11 00:49:39;;;;;;;33.45;10.18;;;;;;;-146.27;82.71;81624.94;5016857;28;20567;-68
2023/10/11 00:52:09;;;;;;;37.05;9.80;;;;;;;-146.27;82.03;81552.63;5013835;28;20382;-68
2023/10/11 00:54:37;;;;;;;33.67;10.55;;;;;;;-146.27;81.13;81524.50;5027285;28;20032;-68
2023/10/11 00:57:03;;;;;;;34.58;11.45;;;;;;;-146.27;81.42;81556.66;5029895;28;20061;-68
2023/10/11 00:59:30;;;;;;;32.63;10.63;;;;;;;-146.27;80.59;81502.41;5027097;28;20040;-68
2023/10/11 01:01:58;;;;;;;34.22;10.10;;;;;;;-146.27;80.55;81472.28;5019189;28;20029;-68
2023/10/11 01:04:25;;;;;;;27.33;10.43;;;;;;;-146.27;81.04;81452.22;5018945;28;20429;-68
2023/10/11 01:06:51;;;;;;;34.22;11.32;;;;;;;-146.27;80.94;81520.50;5020346;28;20037;-69
2023/10/11 01:09:26;;;;;;;32.92;10.50;;;;;;;-146.27;82.07;81606.84;5018066;28;20534;-67
2023/10/11 01:11:52;;;;;;;28.38;10.98;;;;;;;-146.27;81.86;81548.59;5028028;28;20379;-68
2023/10/11 01:14:17;;;;;;;31.52;11.25;;;;;;;-146.27;81.70;81624.94;5018883;28;20030;-68
2023/10/11 01:16:43;;;;;;;30.60;10.60;;;;;;;-146.27;81.03;81508.44;5025299;28;20531;-68
2023/10/11 01:19:11;;;;;;;29.45;10.18;;;;;;;-146.27;81.12;81528.53;5026632;28;20033;-67
2023/10/11 01:21:41;;;;;;;27.83;10.88;;;;;;;-146.27;81.88;81552.63;5021989;28;20087;-68
2023/10/11 01:24:08;;;;;;;39.80;11.32;;;;;;;-146.27;81.66;81598.81;5025471;28;20029;-67
2023/10/11 01:26:35;;;;;;;29.75;10.27;;;;;;;-146.27;82.11;81586.78;5026180;28;20045;-67
2023/10/11 01:29:01;;;;;;;28.10;11.65;;;;;;;-146.27;82.32;81570.69;5015399;28;20431;-68
2023/10/11 01:31:32;;;;;;;36.42;12.50;;;;;;;-146.27;82.26;81560.66;5022600;28;20025;-67
2023/10/11 01:33:58;;;;;;;27.02;11.43;;;;;;;-146.27;81.79;81566.69;5015405;28;20390;-68
2023/10/11 01:36:23;;;;;;;39.05;13.02;;;;;;;-146.27;82.22;81592.78;5017013;28;20032;-68
2023/10/11 01:38:49;;;;;;;32.30;11.85;;;;;;;-146.27;82.42;81554.63;5020048;28;20057;-68
2023/10/11 01:41:15;;;;;;;31.95;13.10;;;;;;;-146.27;83.59;81645.00;5019875;28;20033;-68
2023/10/11 01:43:40;;;;;;;36.88;13.20;;;;;;;-146.27;83.89;81602.84;5017171;28;20073;-68
2023/10/11 01:46:06;;;;;;;31.50;12.15;;;;;;;-146.27;82.98;81612.88;5022216;28;20076;-68
2023/10/11 01:48:31;;;;;;;37.67;12.90;;;;;;;-146.27;83.31;81590.78;5022811;28;20029;-68
2023/10/11 01:51:05;;;;;;;37.72;13.32;;;;;;;-146.27;83.58;81671.13;5017811;28;20490;-68
2023/10/11 01:53:31;;;;;;;30.20;11.98;;;;;;;-146.27;83.75;81649.03;5020317;28;20032;-68
2023/10/11 01:55:57;;;;;;;39.53;12.88;;;;;;;-146.27;83.81;81628.94;5018377;28;20026;-68
2023/10/11 01:58:22;;;;;;;33.22;13.85;;;;;;;-146.27;84.10;81697.22;5016367;28;20026;-68
2023/10/11 02:00:49;;;;;;;35.30;13.85;;;;;;;-146.27;84.72;81737.41;5022951;28;20022;-68
2023/10/11 02:03:14;;;;;;;38.92;14.23;;;;;;;-146.27;83.81;81641.00;5023323;28;20416;-68
2023/10/11 02:05:40;;;;;;;33.95;12.93;;;;;;;-146.27;84.42;81683.19;5018356;28;20029;-67
2023/10/11 02:08:16;;;;;;;42.45;14.40;;;;;;;-146.27;84.31;81689.19;5021244;28;20390;-67
2023/10/11 02:10:45;;;;;;;39.60;13.13;;;;;;;-146.27;83.86;81659.06;5015673;28;20022;-67
2023/10/11 02:13:11;;;;;;;39.08;12.35;;;;;;;-146.27;83.63;81681.16;5030214;28;20433;-67
2023/10/11 02:15:39;;;;;;;37.75;13.13;;;;;;;-146.27;84.01;81681.16;5020732;28;20041;-67
2023/10/11 02:18:07;;;;;;;29.65;12.82;;;;;;;-146.27;83.36;81649.03;5018452;28;20053;-67
2023/10/11 02:20:45;;;;;;;29.10;12.65;;;;;;;-146.27;83.55;81657.06;5028876;28;20025;-67
2023/10/11 02:23:11;;;;;;;35.55;12.02;;;;;;;-146.27;83.93;81713.31;5017072;28;20450;-67
2023/10/11 02:25:37;;;;;;;33.08;12.27;;;;;;;-146.27;83.03;81632.97;5013689;28;20033;-67
2023/10/11 02:28:07;;;;;;;33.58;12.48;;;;;;;-146.27;82.91;81639.00;5019065;28;20025;-67
2023/10/11 02:30:38;;;;;;;34.85;12.07;;;;;;;-146.27;82.84;81590.78;5028583;28;20038;-68
2023/10/11 02:33:07;;;;;;;39.65;12.10;;;;;;;-146.27;82.68;81632.97;5023701;28;20037;-67
2023/10/11 02:35:49;;;;;;;24.75;11.98;;;;;;;-146.27;82.11;81596.81;5014979;28;20473;-67
2023/10/11 02:38:21;;;;;;;33.85;11.77;;;;;;;-146.27;82.61;81612.88;5027473;28;20027;-67
2023/10/11 02:40:54;;;;;;;36.95;12.23;;;;;;;-146.27;83.17;81671.13;5023851;28;20030;-67
2023/10/11 02:43:20;;;;;;;30.50;12.38;;;;;;;-146.27;83.70;81693.22;5018344;28;20029;-67
2023/10/11 02:45:45;;;;;;;34.72;12.20;;;;;;;-146.27;83.85;81707.28;5028244;28;20535;-67
2023/10/11 02:48:11;;;;;;;36.90;14.13;;;;;;;-146.27;83.20;81711.28;5029952;28;20064;-66
2023/10/11 02:50:36;;;;;;;28.85;13.60;;;;;;;-146.27;83.24;81693.22;5026589;28;20029;-67
2023/10/11 02:53:12;;;;;;;29.63;13.43;;;;;;;-146.27;83.85;81731.38;5022334;28;20021;-67
2023/10/11 02:55:38;;;;;;;29.23;11.98;;;;;;;-146.27;83.31;81701.25;5019116;28;20455;-67
2023/10/11 02:58:07;;;;;;;36.38;12.48;;;;;;;-146.27;83.58;81721.34;5029719;28;20124;-67
2023/10/11 03:00:43;;;;;;;36.25;14.23;;;;;;;-146.27;84.36;81813.72;5018021;28;20033;-67
2023/10/11 03:03:11;;;;;;;35.17;14.32;;;;;;;-146.27;83.83;81745.44;5015784;28;20402;-67
2023/10/11 03:05:38;;;;;;;36.58;13.13;;;;;;;-146.27;83.26;81741.41;5025316;28;20037;-67
2023/10/11 03:08:18;;;;;;;39.70;14.70;;;;;;;-146.27;83.21;81731.38;5022143;28;20045;-66
2023/10/11 03:10:54;;;;;;;38.97;14.65;;;;;;;-146.27;82.98;81733.38;5026233;28;20083;-66
2023/10/11 03:13:24;;;;;;;29.75;13.50;;;;;;;-146.27;82.98;81713.31;5014041;28;20477;-67
2023/10/11 03:15:56;;;;;;;35.60;14.10;;;;;;;-146.27;82.86;81713.31;5013622;28;20475;-66
2023/10/11 03:18:24;;;;;;;40.03;14.35;;;;;;;-146.27;83.04;81731.38;5020182;28;20565;-67
2023/10/11 03:20:50;;;;;;;35.30;14.27;;;;;;;-146.27;82.76;81751.47;5016737;28;20017;-67
2023/10/11 03:23:20;;;;;;;31.88;14.15;;;;;;;-146.27;82.68;81725.34;5026657;28;20482;-67
2023/10/11 03:25:49;;;;;;;37.88;13.52;;;;;;;-146.27;83.43;81765.53;5025322;28;20026;-67
2023/10/11 03:28:21;;;;;;;32.08;13.18;;;;;;;-146.27;83.20;81765.53;5015473;28;20057;-66
2023/10/11 03:30:46;;;;;;;29.38;13.15;;;;;;;-146.27;82.49;81703.25;5021475;28;20025;-67
2023/10/11 03:33:12;;;;;;;28.83;13.38;;;;;;;-146.27;83.23;81733.38;5016957;28;20030;-66
2023/10/11 03:35:38;;;;;;;31.50;13.80;;;;;;;-146.27;83.16;81777.56;5029464;28;20025;-67
2023/10/11 03:38:16;;;;;;;35.58;14.32;;;;;;;-146.27;84.03;81809.72;5017364;28;20034;-66
2023/10/11 03:40:54;;;;;;;35.80;13.85;;;;;;;-146.27;83.78;81769.53;5015294;28;20373;-67
2023/10/11 03:43:19;;;;;;;30.85;13.88;;;;;;;-146.27;83.60;81765.53;5015334;28;20021;-67
2023/10/11 03:45:51;;;;;;;33.85;13.93;;;;;;;-146.27;83.80;81797.66;5031355;28;20421;-66
2023/10/11 03:48:18;;;;;;;46.80;15.50;;;;;;;-146.27;84.44;81789.63;5019919;28;20514;-67
2023/10/11 03:50:52;;;;;;;33.33;14.80;;;;;;;-146.27;84.58;81849.88;5021715;28;20141;-67
2023/10/11 03:53:18;;;;;;;33.67;15.43;;;;;;;-146.27;83.59;81723.34;5028989;28;20048;-67
2023/10/11 03:55:47;;;;;;;34.50;14.13;;;;;;;-146.27;84.07;81737.41;5030368;28;20100;-67
2023/10/11 04:01:00;;;;;;;38.78;15.73;;;;;;;-146.27;85.18;81851.88;5016576;28;20036;-67
2023/10/11 04:03:26;;;;;;;41.45;14.95;;;;;;;-146.27;84.58;81803.69;5028573;28;20021;-67
2023/10/11 04:05:51;;;;;;;34.97;14.93;;;;;;;-146.27;84.31;81775.56;5022897;28;20482;-67
2023/10/11 04:08:24;;;;;;;37.72;14.13;;;;;;;-146.27;84.56;81765.53;5021772;28;20028;-67
2023/10/11 04:10:51;;;;;;;38.92;15.15;;;;;;;-146.27;84.18;81745.44;5022139;28;20035;-67
2023/10/11 04:13:24;;;;;;;32.03;13.90;;;;;;;-146.27;84.43;81761.50;5026428;28;20026;-67
2023/10/11 04:15:50;;;;;;;36.20;13.95;;;;;;;-146.27;84.87;81805.69;5016782;28;20702;-66
2023/10/11 04:21:14;;;;;;;33.53;14.65;;;;;;;-146.27;84.90;81751.47;5010487;28;20034;-67
2023/10/11 04:23:40;;;;;;;37.03;14.43;;;;;;;-146.27;83.97;81743.44;5016850;28;20449;-67
2023/10/11 04:26:24;;;;;;;37.92;15.00;;;;;;;-146.27;84.25;81725.34;5014074;28;20041;-67
2023/10/11 04:28:52;;;;;;;36.90;14.10;;;;;;;-146.27;83.64;81665.09;5016502;28;20112;-67
2023/10/11 04:31:36;;;;;;;39.90;14.57;;;;;;;-146.27;83.94;81737.41;5022472;28;20074;-67
2023/10/11 04:34:02;;;;;;;33.13;14.18;;;;;;;-146.27;84.92;81729.38;5029198;28;20040;-67
2023/10/11 04:36:28;;;;;;;43.20;16.40;;;;;;;-146.27;84.53;81693.22;5014809;28;20029;-67
2023/10/11 04:39:03;;;;;;;43.63;14.93;;;;;;;-146.27;84.50;81713.31;5019016;28;20397;-67
2023/10/11 04:41:37;;;;;;;45.15;15.88;;;;;;;-146.27;84.19;81699.25;5028278;28;20033;-67
2023/10/11 04:44:13;;;;;;;35.42;15.27;;;;;;;-146.27;84.36;81703.25;5018367;28;20466;-67
2023/10/11 04:46:39;;;;;;;36.88;14.93;;;;;;;-146.27;84.22;81641.00;5021570;28;20029;-67
2023/10/11 04:49:21;;;;;;;45.35;15.63;;;;;;;-146.27;84.37;81641.00;5021253;28;20313;-67
2023/10/11 04:51:46;;;;;;;44.28;14.70;;;;;;;-146.27;84.96;81717.31;5017116;28;20033;-66
2023/10/11 04:54:18;;;;;;;41.70;14.95;;;;;;;-146.27;86.12;81765.53;5026565;28;20571;-67
2023/10/11 04:59:20;;;;;;;36.35;14.25;;;;;;;-146.27;84.45;81671.13;5021989;28;20030;-67
2023/10/11 05:04:15;;;;;;;31.55;12.57;;;;;;;-146.27;84.45;81665.09;5017305;28;20041;-67
2023/10/11 05:06:44;;;;;;;46.22;14.32;;;;;;;-146.27;84.55;81673.13;5015824;28;20030;-67
2023/10/11 05:11:53;;;;;;;39.70;13.63;;;;;;;-146.27;83.59;81628.94;5017293;28;20033;-67
2023/10/11 05:19:46;;;;;;;34.05;13.65;;;;;;;-146.27;85.13;81667.09;5020556;28;20038;-67
2023/10/11 05:33:09;;;;;;;34.20;13.50;;;;;;;-146.27;84.94;81671.13;5014666;28;19952;-65
2023/10/11 05:35:53;;;;;;;46.03;15.10;;;;;;;-146.27;85.16;81693.22;5023144;28;20021;-66
2023/10/11 05:52:16;;;;;;;42.65;13.48;;;;;;;-146.27;86.14;81737.41;5028972;28;20040;-67
2023/10/11 05:54:42;;;;;;;42.90;13.60;;;;;;;-146.27;85.88;81733.38;5019908;28;20033;-66
2023/10/11 05:57:07;;;;;;;42.17;14.60;;;;;;;-146.27;84.93;81618.91;5019142;28;20056;-66
2023/10/11 05:59:37;;;;;;;36.08;14.07;;;;;;;-146.27;84.90;81653.06;5025130;28;20022;-67
2023/10/11 06:02:13;;;;;;;34.55;13.40;;;;;;;-146.27;84.80;81649.03;5034781;28;20033;-67
2023/10/11 06:04:39;;;;;;;42.20;13.43;;;;;;;-146.27;86.12;81733.38;5028582;28;21408;-67
2023/10/11 06:07:12;;;;;;;43.40;12.95;;;;;;;-146.27;85.64;81693.22;5021638;28;20584;-66
2023/10/11 06:09:45;;;;;;;;;;;;;;;-146.27;85.40;81630.97;5015685;28;20478;-66
2023/10/11 06:12:23;;;;;;;33.28;12.55;;;;;;;-146.27;84.72;81667.09;5040472;28;20451;-67
2023/10/11 06:14:52;;;;;;;39.85;14.57;;;;;;;-146.27;84.74;81632.97;5025544;28;20049;-66
2023/10/11 06:17:32;;;;;;;30.13;11.93;;;;;;;-146.27;84.36;81564.69;5015894;28;20464;-67
2023/10/11 06:20:10;;;;;;;37.97;12.02;;;;;;;-146.27;85.63;81677.16;5020418;28;20633;-65
2023/10/11 06:22:36;;;;;;;41.47;13.07;;;;;;;-146.27;86.77;81717.31;5027809;28;20661;-66
2023/10/11 06:25:07;;;;;;;35.17;13.23;;;;;;;-146.27;85.49;81632.97;5035616;28;20083;-67
2023/10/11 06:30:32;;;;;;;41.55;12.95;;;;;;;-146.27;85.65;81653.06;5028770;28;20037;-67
2023/10/11 06:32:57;;;;;;;28.70;11.32;;;;;;;-146.27;84.69;81556.66;5026322;28;20087;-68
2023/10/11 06:35:25;;;;;;;37.33;12.52;;;;;;;-146.27;85.86;81661.09;5020263;28;20052;-68
2023/10/11 06:37:54;;;;;;;47.38;12.85;;;;;;;-146.27;85.32;81667.09;5029774;28;20098;-66
2023/10/11 06:40:38;;;;;;;39.65;11.88;;;;;;;-146.27;84.84;81616.91;5017308;28;20040;-67
2023/10/11 06:43:07;;;;;;;36.22;12.65;;;;;;;-146.27;84.73;81608.88;5011143;28;20022;-67
2023/10/11 06:45:33;;;;;;;36.55;12.13;;;;;;;-146.27;84.47;81588.78;5025766;28;20086;-67
2023/10/11 06:48:06;;;;;;;39.15;11.88;;;;;;;-146.27;84.45;81554.63;5013662;28;20037;-68
2023/10/11 06:50:35;;;;;;;;;;;;;;;-146.27;84.18;81524.50;5024217;28;20459;-68
2023/10/11 06:53:06;;;;;;;40.78;12.57;;;;;;;-146.27;84.77;81628.94;5024931;28;19937;-68
2023/10/11 06:55:47;;;;;;;39.63;12.02;;;;;;;-146.27;85.51;81630.97;5012255;28;20457;-68
2023/10/11 06:58:19;;;;;;;26.52;10.95;;;;;;;-146.27;84.89;81588.78;5020103;28;20035;-67
2023/10/11 07:00:47;;;;;;;30.98;12.02;;;;;;;-146.27;85.04;81588.78;5015142;28;20148;-67
2023/10/11 07:05:51;;;;;;;36.88;12.30;;;;;;;-146.27;85.51;81566.69;5029134;28;20041;-68
2023/10/11 07:08:20;;;;;;;36.83;12.30;;;;;;;-146.27;86.24;81661.09;5020475;28;20026;-68
2023/10/11 07:13:54;;;;;;;32.75;11.13;;;;;;;-146.27;84.94;81592.78;5016956;28;20044;-68
2023/10/11 07:16:20;;;;;;;37.72;12.57;;;;;;;-146.27;84.53;81530.53;5030320;28;20042;-68
2023/10/11 07:18:46;;;;;;;41.20;11.68;;;;;;;-146.27;84.29;81524.50;5030469;28;20026;-68
2023/10/11 07:21:15;;;;;;;43.90;12.88;;;;;;;-146.27;83.91;81468.28;5029010;28;20347;-68
2023/10/11 07:29:01;;;;;;;35.88;11.30;;;;;;;-146.27;83.63;81472.28;5020089;28;20038;-68
2023/10/11 07:31:32;;;;;;;46.72;11.95;;;;;;;-146.27;84.33;81520.50;5019882;28;20061;-67
2023/10/11 07:34:09;;;;;;;36.60;11.40;;;;;;;-146.27;85.09;81560.66;5023338;28;20048;-68
2023/10/11 07:36:38;;;;;;;32.55;11.55;;;;;;;-146.27;84.64;81524.50;5020366;28;20362;-66
2023/10/11 07:39:19;;;;;;;32.00;11.18;;;;;;;-146.27;84.66;81538.56;5017674;28;20065;-67
2023/10/11 07:41:47;;;;;;;32.17;11.40;;;;;;;-146.27;85.29;81576.72;5022093;28;20026;-68
2023/10/11 07:44:13;;;;;;;37.50;11.55;;;;;;;-146.27;83.84;81470.28;5020674;28;20033;-68
2023/10/11 07:46:39;;;;;;;39.97;11.50;;;;;;;-146.27;84.41;81528.53;5025969;28;20029;-68
2023/10/11 07:49:05;;;;;;;46.40;11.15;;;;;;;-146.27;84.36;81490.38;5011500;28;20025;-69
2023/10/11 07:51:35;;;;;;;36.28;10.68;;;;;;;-146.27;84.72;81516.47;5011336;28;20343;-68
2023/10/11 07:54:06;;;;;;;34.97;10.68;;;;;;;-146.27;84.03;81464.25;5024473;28;20128;-67
2023/10/11 07:56:35;;;;;;;35.80;11.23;;;;;;;-146.27;84.22;81498.41;5023182;28;20545;-68
2023/10/11 07:59:08;;;;;;;32.85;10.95;;;;;;;-146.27;85.04;81542.59;5018533;28;20021;-68
2023/10/11 08:01:42;;;;;;;32.60;10.90;;;;;;;-146.27;83.55;81412.03;5010445;28;20022;-67
2023/10/11 08:04:12;;;;;;;30.33;10.73;;;;;;;-146.27;84.76;81528.53;5021181;28;20332;-67
2023/10/11 08:06:40;;;;;;;28.95;10.50;;;;;;;-146.27;83.69;81424.09;5029395;28;20104;-66
2023/10/11 08:09:06;;;;;;;28.13;9.10;;;;;;;-146.27;83.57;81488.38;5022411;28;20040;-67
2023/10/11 08:14:21;;;;;;;16.52;5.57;;;;;;;-146.27;83.26;81532.53;5018224;28;20099;-66
2023/10/11 08:16:49;;;;;;;19.10;5.10;;;;;;;-146.27;82.48;81508.44;5019910;28;20348;-66
2023/10/11 08:19:14;;;;;;;18.88;5.25;;;;;;;-146.27;82.43;81564.69;5010714;28;20037;-66
2023/10/11 08:21:40;;;;;;;14.07;4.40;;;;;;;-146.27;82.22;81548.59;4999895;28;20037;-66
2023/10/11 08:24:15;;;;;;;12.88;4.65;;;;;;;-146.27;81.71;81530.53;4999698;28;20497;-69
2023/10/11 08:26:42;;;;;;;14.10;4.43;;;;;;;-146.27;81.06;81387.94;5011778;28;20082;-68
2023/10/11 08:29:27;;;;;;;10.52;4.78;;;;;;;-146.27;80.57;81424.09;5016720;28;20129;-67
2023/10/11 08:31:57;;;;;;;8.57;3.97;;;;;;;-146.27;81.43;81450.19;5020622;28;20133;-67
2023/10/11 08:34:27;;;;;;;9.27;4.47;;;;;;;-146.27;79.92;81404.00;5010725;28;20080;-67
2023/10/11 08:36:56;;;;;;;15.00;4.45;;;;;;;-146.27;80.59;81462.25;5019248;28;20056;-67
2023/10/11 08:39:46;;;;;;;14.23;4.80;;;;;;;-146.27;80.42;81412.03;5027866;28;20488;-67
2023/10/11 08:42:14;;;;;;;9.15;4.10;;;;;;;-146.27;80.81;81504.44;5013180;28;20037;-68
2023/10/11 08:44:44;;;;;;;9.52;4.63;;;;;;;-146.27;80.56;81440.16;5021763;28;20033;-67
2023/10/11 08:47:13;;;;;;;14.90;5.07;;;;;;;-146.27;79.84;81339.75;5027932;28;20049;-66
2023/10/11 08:49:48;;;;;;;9.75;4.22;;;;;;;-146.27;81.24;81492.38;5017254;28;20513;-67
2023/10/11 08:52:28;;;;;;;11.90;4.25;;;;;;;-146.27;80.68;81436.16;5024192;28;20112;-66
2023/10/11 08:54:53;;;;;;;11.65;4.47;;;;;;;-146.27;80.75;81430.13;5027771;28;20488;-67
2023/10/11 08:57:23;;;;;;;10.82;4.60;;;;;;;-146.27;80.70;81450.19;5029305;28;20021;-66
2023/10/11 08:59:56;;;;;;;12.90;4.10;;;;;;;-146.27;79.99;81335.72;5028321;28;20466;-67
2023/10/11 09:02:24;;;;;;;11.18;4.30;;;;;;;-146.27;80.17;81389.94;5023595;28;20022;-67
2023/10/11 09:05:42;;;;;;;10.27;4.88;;;;;;;-146.27;80.40;81408.03;5025554;28;20022;-68
2023/10/11 09:07:57;;;;;;;15.80;5.15;;;;;;;-146.27;80.20;81418.06;5014744;28;20037;-66
2023/10/11 09:10:29;;;;;;;12.05;4.63;;;;;;;-146.27;80.25;81375.91;5021859;28;20397;-65
2023/10/11 09:12:56;;;;;;;11.90;4.80;;;;;;;-146.27;79.42;81420.06;5013369;28;20041;-68
2023/10/11 09:15:42;;;;;;;14.18;5.50;;;;;;;-146.27;79.65;81381.91;5014333;28;20053;-67
2023/10/11 09:18:17;;;;;;;13.38;4.80;;;;;;;-146.27;79.91;81371.88;5023901;28;20049;-67
2023/10/11 09:21:09;;;;;;;8.88;4.50;;;;;;;-146.27;79.08;81281.50;5025174;28;20021;-67
2023/10/11 09:23:39;;;;;;;12.73;4.88;;;;;;;-146.27;79.85;81456.22;5019174;28;20059;-65
2023/10/11 09:26:08;;;;;;;9.18;3.97;;;;;;;-146.27;79.25;81347.78;5023505;28;20030;-66
2023/10/11 09:28:34;;;;;;;8.30;3.95;;;;;;;-146.27;78.58;81307.63;5017617;28;20053;-66
2023/10/11 09:31:15;;;;;;;15.95;3.92;;;;;;;-146.27;79.49;81321.66;5017571;28;20556;-66
2023/10/11 09:33:53;;;;;;;10.35;4.40;;;;;;;-146.27;79.35;81331.72;5024012;28;20401;-67
2023/10/11 09:36:24;;;;;;;20.88;4.22;;;;;;;-146.27;79.79;81369.88;5030990;28;20025;-66
2023/10/11 09:38:59;;;;;;;13.20;4.93;;;;;;;-146.27;79.12;81299.59;5031876;28;20056;-67
2023/10/11 09:41:41;;;;;;;15.15;4.78;;;;;;;-146.27;79.04;81333.72;5020868;28;20124;-67
2023/10/11 09:44:10;;;;;;;11.90;4.70;;;;;;;-146.27;79.23;81315.66;5016376;28;20092;-65
2023/10/11 09:46:36;;;;;;;14.43;4.85;;;;;;;-146.27;78.76;81269.47;5022223;28;20084;-67
2023/10/11 09:49:04;;;;;;;23.33;5.53;;;;;;;-146.27;78.86;81235.31;5030618;28;20057;-67
2023/10/11 09:51:31;;;;;;;22.60;5.53;;;;;;;-146.27;79.20;81287.53;5022920;28;20504;-65
2023/10/11 09:54:07;;;;;;;18.23;5.18;;;;;;;-146.27;79.05;81223.25;5021518;28;20389;-67
2023/10/11 09:56:50;;;;;;;13.50;4.43;;;;;;;-146.27;79.73;81263.44;5016150;28;20392;-66
2023/10/11 09:59:46;;;;;;;21.88;4.30;;;;;;;-146.27;78.91;81207.19;5026506;28;20029;-65
2023/10/11 10:02:23;;;;;;;14.90;4.90;;;;;;;-146.27;78.31;81102.78;5029636;28;20026;-66
2023/10/11 10:04:51;;;;;;;15.18;4.68;;;;;;;-146.27;77.26;81058.59;5030690;28;20051;-65
2023/10/11 10:07:24;;;;;;;10.70;4.28;;;;;;;-146.27;77.07;81114.81;5020740;28;20067;-67
2023/10/11 10:09:52;;;;;;;10.57;4.53;;;;;;;-146.27;77.32;81112.81;5024701;28;20032;-66
2023/10/11 10:12:22;;;;;;;16.80;4.57;;;;;;;-146.27;76.91;81048.56;5018684;28;20517;-66
2023/10/11 10:15:23;;;;;;;16.15;4.20;;;;;;;-146.27;76.66;81082.69;5022177;28;20046;-66
2023/10/11 10:17:57;;;;;;;12.07;4.05;;;;;;;-146.27;76.22;80982.28;5025283;28;20041;-70
2023/10/11 10:20:52;;;;;;;10.20;2.92;;;;;;;-146.27;75.83;80958.19;5029479;28;20033;-68
2023/10/11 10:23:16;;;;;;;9.45;3.33;;;;;;;-146.27;75.71;80958.19;5016597;28;20045;-69
2023/10/11 10:25:46;;;;;;;10.43;3.45;;;;;;;-146.27;75.14;80895.94;5024469;28;20033;-69
2023/10/11 10:28:36;;;;;;;10.85;3.42;;;;;;;-146.27;74.91;80813.59;5016063;28;20037;-69
2023/10/11 10:31:09;;;;;;;9.80;3.47;;;;;;;-146.27;74.47;80777.47;5021175;28;20497;-69
2023/10/11 10:33:38;;;;;;;8.80;3.65;;;;;;;-146.27;74.98;80873.84;5022351;28;20079;-69
2023/10/11 10:36:21;;;;;;;11.38;3.65;;;;;;;-146.27;74.79;80759.41;5020383;28;20448;-69
2023/10/11 10:41:39;;;;;;;8.10;3.42;;;;;;;-146.27;75.07;80869.84;5022300;28;20366;-67
2023/10/11 10:44:08;;;;;;;8.30;3.15;;;;;;;-146.27;74.85;80807.59;5016023;28;20453;-72
2023/10/11 10:46:36;;;;;;;9.80;3.30;;;;;;;-146.27;76.09;80922.03;5030617;28;20033;-68
2023/10/11 10:49:02;;;;;;;9.45;2.72;;;;;;;-146.27;76.27;80970.25;5025107;28;20029;-68
2023/10/11 10:51:37;;;;;;;12.73;3.67;;;;;;;-146.27;76.99;81002.38;5026557;28;20022;-68
2023/10/11 10:54:13;;;;;;;8.75;3.65;;;;;;;-146.27;76.06;80922.03;5015176;28;20395;-68
2023/10/11 10:56:46;;;;;;;8.23;3.15;;;;;;;-146.27;77.01;80984.28;5026205;28;20272;-67
2023/10/11 10:59:13;;;;;;;15.20;3.10;;;;;;;-146.27;77.22;81046.53;5031239;28;20025;-68
2023/10/11 11:01:44;;;;;;;10.75;3.17;;;;;;;-146.27;77.38;81086.72;5029692;28;20390;-69
2023/10/11 11:04:11;;;;;;;10.85;3.22;;;;;;;-146.27;76.72;80966.22;5022087;28;20029;-68
2023/10/11 11:06:40;;;;;;;13.38;3.15;;;;;;;-146.27;77.00;80998.34;5025187;28;20480;-69
2023/10/11 11:09:15;;;;;;;14.70;3.00;;;;;;;-146.27;76.53;80938.09;5029042;28;20030;-69
2023/10/11 11:11:45;;;;;;;9.15;3.30;;;;;;;-146.27;75.89;80873.84;5024794;28;20033;-69
2023/10/11 11:14:19;;;;;;;11.15;2.90;;;;;;;-146.27;75.32;80745.34;5019763;28;20540;-69
2023/10/11 11:16:59;;;;;;;10.48;3.03;;;;;;;-146.27;74.05;80677.06;5025833;28;20061;-68
2023/10/11 11:19:27;;;;;;;11.68;3.35;;;;;;;-146.27;74.15;80689.13;5028196;28;20044;-68
2023/10/11 11:22:11;;;;;;;17.77;3.78;;;;;;;-146.27;75.35;80887.91;5027240;28;20057;-68
2023/10/11 11:24:36;;;;;;;11.43;3.53;;;;;;;-146.27;75.26;80853.78;5030590;28;20096;-68
2023/10/11 11:27:06;;;;;;;7.97;3.22;;;;;;;-146.27;74.58;80719.22;5025226;28;20117;-67
2023/10/11 11:29:33;;;;;;;9.15;3.20;;;;;;;-146.27;75.13;80825.66;5029226;28;20037;-67
2023/10/11 11:31:59;;;;;;;17.85;3.55;;;;;;;-146.27;74.76;80749.34;5022872;28;20017;-67
2023/10/11 11:34:34;;;;;;;9.63;3.03;;;;;;;-146.27;74.73;80753.38;5023940;28;20065;-66
2023/10/11 11:37:04;;;;;;;15.65;4.50;;;;;;;-146.27;73.71;80677.06;5018628;28;20033;-66
2023/10/11 11:42:03;;;;;;;9.07;3.10;;;;;;;-146.27;73.20;80697.16;5010878;28;20022;-67
2023/10/11 11:44:33;;;;;;;10.25;3.10;;;;;;;-146.27;73.29;80665.03;5023592;28;20033;-67
2023/10/11 11:47:05;;;;;;;12.23;3.30;;;;;;;-146.27;73.96;80733.28;5021395;28;20451;-66
2023/10/11 11:49:33;;;;;;;9.68;2.95;;;;;;;-146.27;74.04;80743.34;5030249;28;20060;-67
2023/10/11 11:51:59;;;;;;;11.73;3.47;;;;;;;-146.27;74.71;80787.50;5030185;28;20075;-67
2023/10/11 11:54:30;;;;;;;12.43;3.33;;;;;;;-146.27;74.77;80819.63;5025345;28;20669;-66
2023/10/11 11:56:57;;;;;;;9.05;2.97;;;;;;;-146.27;75.73;80889.91;5024749;28;20017;-67
2023/10/11 11:59:29;;;;;;;7.68;2.90;;;;;;;-146.27;75.15;80839.72;5020169;28;20036;-67
2023/10/11 12:01:56;;;;;;;8.60;3.10;;;;;;;-146.27;74.83;80857.78;5016268;28;20393;-67
2023/10/11 12:04:29;;;;;;;13.15;3.40;;;;;;;-146.27;74.63;80759.41;5014976;28;20378;-67
2023/10/11 12:07:09;;;;;;;8.40;3.00;;;;;;;-146.27;74.66;80769.44;5018134;28;20037;-67
2023/10/11 12:09:35;;;;;;;17.58;4.13;;;;;;;-146.27;73.96;80729.28;5017059;28;20126;-66
2023/10/11 12:12:04;;;;;;;5.65;3.03;;;;;;;-146.27;74.57;80745.34;5015509;28;20629;-67
2023/10/11 12:14:29;;;;;;;9.57;3.30;;;;;;;-146.27;74.63;80761.41;5012235;28;20265;-66
2023/10/11 12:16:55;;;;;;;15.10;3.20;;;;;;;-146.27;75.86;80897.94;5021205;28;20036;-67
2023/10/11 12:19:21;;;;;;;10.25;3.25;;;;;;;-146.27;75.62;80821.63;5018505;28;20021;-66
2023/10/11 12:21:49;;;;;;;9.90;3.15;;;;;;;-146.27;75.26;80849.75;5017973;28;20045;-67
2023/10/11 12:24:15;;;;;;;9.93;3.15;;;;;;;-146.27;75.52;80857.78;5014515;28;20309;-67
2023/10/11 12:26:43;;;;;;;9.27;3.15;;;;;;;-146.27;75.59;80877.88;5025729;28;20013;-65
2023/10/11 12:29:09;;;;;;;10.65;3.15;;;;;;;-146.27;74.45;80650.97;5032222;28;20042;-68